Flight Track Log - Related Links

Times and Time Zones

All times are in EDT time to prevent confusion due to time zone crossing. See the AWE1092 flight status page for this flight to view local times or setup timezone preferences in your user account.

Time Position Orientation Groundspeed Altitude Reporting Facility
EDT Latitude Longitude Course Direction KTS MPH feet Rate Location/Type
Thu 07:28:04 AM 42.9500 -71.4167 273° West 148 170 1,000  Level KA90
Thu 07:29:39 AM 43.0311 -71.3864 15° North 207 238 4,200 2,627 Climbing Boston Center
Thu 07:30:00 AM 42.9500 -71.9208 270° West  Level FlightAware Approximate
Thu 07:30:37 AM 43.0878 -71.4081 344° North 212 244 7,700  Level Boston Center
Thu 07:31:00 AM 42.9501 -72.0847 270° West  Level FlightAware Approximate
Thu 07:31:37 AM 43.1319 -71.4700 314° West 236 272 9,800  Level Boston Center
Thu 07:32:00 AM 42.9514 -72.2486 273° West  Level FlightAware Approximate
Thu 07:32:39 AM 43.1097 -71.5528 250° West 230 265 13,200  Level Boston Center
Thu 07:33:00 AM 42.9583 -72.4123 273° West  Level FlightAware Approximate
Thu 07:33:36 AM 43.0856 -71.6583 253° West 257 296 16,500  Level Boston Center
Thu 07:34:37 AM 43.0631 -71.7439 250° West 271 312 18,300 1,475 Climbing Boston Center
Thu 07:35:38 AM 43.0325 -71.8606 250° West 285 328 19,500 843 Climbing Boston Center
Thu 07:36:38 AM 42.9997 -71.9917 251° West 323 372 20,000 250 Climbing Boston Center
Thu 07:37:38 AM 42.9647 -72.1281 251° West 364 419 20,000  Level Boston Center
Thu 07:38:39 AM 42.9297 -72.2642 251° West 382 440 20,000  Level Boston Center
Thu 07:39:36 AM 42.8964 -72.4003 252° West 382 440 20,000  Level Boston Center
Thu 07:40:37 AM 42.8714 -72.5108 253° West 382 440 20,000  Level Boston Center
Thu 07:41:37 AM 42.8169 -72.6694 245° Southwest 387 445 20,000  Level Boston Center
Thu 07:42:38 AM 42.7792 -72.8136 250° West 392 451 20,000  Level Boston Center
Thu 07:43:39 AM 42.7431 -72.9433 249° West 392 451 20,000  Level Boston Center
Thu 07:44:39 AM 42.7092 -73.0928 253° West 399 459 20,000  Level Boston Center
Thu 07:45:37 AM 42.6728 -73.2281 250° West 399 459 20,000  Level Boston Center
Thu 07:46:38 AM 42.6386 -73.3517 249° West 399 459 20,000  Level Boston Center
Thu 07:47:39 AM 42.5997 -73.4864 249° West 389 448 20,000  Level Boston Center
Thu 07:48:39 AM 42.5611 -73.6211 249° West 389 448 20,000 -205 Level Boston Center
Thu 07:49:36 AM 42.5242 -73.7556 250° West 397 457 19,600 -500 Descending Boston Center
Thu 07:50:39 AM 42.4850 -73.8817 247° West 377 434 19,000 -600 Descending Boston Center
Thu 07:51:36 AM 42.4478 -74.0214 250° West 369 425 18,400 -605 Descending Boston Center
Thu 07:52:38 AM 42.4147 -74.1358 249° West 364 419 17,800 -843 Descending Boston Center
Thu 07:53:37 AM 42.3772 -74.2697 249° West 364 419 16,700 -800 Descending Boston Center
Thu 07:54:38 AM 42.3442 -74.3811 248° West 357 411 16,200 -347 Descending Boston Center
Thu 07:55:38 AM 42.3064 -74.5203 250° West 357 411 16,000 -149 Descending Boston Center
Thu 07:56:39 AM 42.2706 -74.6456 249° West 357 411 15,900 -32 Descending Boston Center
Thu 07:58:46 AM 42.1928 -74.9050 248° West 352 405 15,900  Level New York Center
Thu 07:59:46 AM 42.1372 -75.0022 232° Southwest 359 413 15,900 -50 Level New York Center
Thu 08:00:47 AM 42.0369 -75.0767 209° Southwest 359 413 15,800 -298 Descending New York Center
Thu 08:01:47 AM 41.9511 -75.1464 211° Southwest 371 427 15,300 -893 Descending New York Center
Thu 08:02:48 AM 41.8758 -75.2083 212° Southwest 376 433 14,000 -1,271 Descending New York Center
Thu 08:03:45 AM 41.7900 -75.2778 211° Southwest 371 427 12,800 -1,017 Descending New York Center
Thu 08:04:46 AM 41.6975 -75.3519 211° Southwest 366 421 12,000 -450 Descending New York Center
Thu 08:05:45 AM 41.6117 -75.4211 211° Southwest 366 421 11,900  Descending New York Center
Thu 08:06:46 AM 41.5256 -75.4897 211° Southwest 366 421 12,000  Climbing New York Center
Thu 08:07:46 AM 41.4503 -75.5508 211° Southwest 366 421 11,900  Descending New York Center
Thu 08:08:47 AM 41.3642 -75.6194 211° Southwest 366 421 12,000  Climbing New York Center
Thu 08:09:47 AM 41.2656 -75.6842 206° Southwest 366 421 11,900 -151 Descending New York Center
Thu 08:10:46 AM 41.1697 -75.6881 182° South 350 403 11,700 -600 Descending New York Center
Thu 08:11:47 AM 41.0842 -75.6875 180° South 328 377 10,700 -893 Descending New York Center
Thu 08:12:47 AM 41.0114 -75.6878 180° South 298 343 9,900 -347 Descending New York Center
Thu 08:13:48 AM 40.9258 -75.6869 180° South 287 330 10,000 51 Climbing New York Center
Thu 08:14:45 AM 40.8469 -75.6867 180° South 287 330 10,000  Level New York Center
Thu 08:15:45 AM 40.7761 -75.6844 179° South 292 336 10,000  Level New York Center
Thu 08:16:46 AM 40.6989 -75.6844 180° South 292 336 10,000 -49 Level New York Center
Thu 08:17:47 AM 40.6136 -75.6836 180° South 292 336 9,900  Descending New York Center
Thu 08:19:04 AM 40.5356 -75.5958 139° Southeast 304 350 10,000 64 Climbing FAA TRACON SMA TRACON (SMA)
Thu 08:19:21 AM 40.5214 -75.5672 123° Southeast 303 349 10,000  Level FAA TRACON SMA TRACON (SMA)
Thu 08:19:41 AM 40.5064 -75.5392 125° Southeast 304 350 10,000  Level FAA TRACON SMA TRACON (SMA)
Thu 08:20:01 AM 40.4917 -75.5108 124° Southeast 304 350 10,000  Level FAA TRACON SMA TRACON (SMA)
Thu 08:20:21 AM 40.4736 -75.4753 124° Southeast 304 350 10,000  Level FAA TRACON SMA TRACON (SMA)
Thu 08:20:41 AM 40.4589 -75.4478 125° Southeast 301 346 10,000  Level FAA TRACON SMA TRACON (SMA)
Thu 08:21:01 AM 40.4425 -75.4278 137° Southeast 297 342 10,000 -150 Level FAA TRACON SMA TRACON (SMA)
Thu 08:21:21 AM 40.4108 -75.4089 156° South 295 339 9,900 -450 Descending FAA TRACON SMA TRACON (SMA)
Thu 08:21:41 AM 40.3883 -75.3956 156° South 291 335 9,700 -750 Descending FAA TRACON SMA TRACON (SMA)
Thu 08:22:01 AM 40.3681 -75.3833 155° Southeast 291 335 9,400 -1,050 Descending FAA TRACON SMA TRACON (SMA)
Thu 08:22:21 AM 40.3375 -75.3667 157° South 289 333 9,000 -1,050 Descending FAA TRACON SMA TRACON (SMA)
Thu 08:22:41 AM 40.3147 -75.3528 155° Southeast 289 333 8,700 -900 Descending FAA TRACON SMA TRACON (SMA)
Thu 08:23:01 AM 40.2950 -75.3406 155° Southeast 286 329 8,400 -1,050 Descending FAA TRACON SMA TRACON (SMA)
Thu 08:23:21 AM 40.2644 -75.3303 166° South 275 316 8,000 -1,050 Descending FAA TRACON SMA TRACON (SMA)
Thu 08:23:41 AM 40.2428 -75.3378 195° South 276 318 7,700 -900 Descending FAA TRACON SMA TRACON (SMA)
Thu 08:24:01 AM 40.2292 -75.3550 224° Southwest 250 288 7,400 -750 Descending FAA TRACON SMA TRACON (SMA)
Thu 08:24:21 AM 40.2144 -75.3869 239° Southwest 248 285 7,200 -450 Descending FAA TRACON SMA TRACON (SMA)
Thu 08:24:41 AM 40.2044 -75.4078 238° Southwest 231 266 7,100 -300 Descending FAA TRACON SMA TRACON (SMA)
Thu 08:25:01 AM 40.1961 -75.4256 238° Southwest 224 258 7,000 -150 Descending FAA TRACON SMA TRACON (SMA)
Thu 08:25:21 AM 40.1831 -75.4539 239° Southwest 212 244 7,000  Level FAA TRACON SMA TRACON (SMA)
Thu 08:25:41 AM 40.1714 -75.4717 229° Southwest 218 251 7,000 -150 Level FAA TRACON SMA TRACON (SMA)
Thu 08:26:01 AM 40.1553 -75.4744 188° South 222 255 6,900 -150 Descending FAA TRACON SMA TRACON (SMA)
Thu 08:26:21 AM 40.1322 -75.4597 154° Southeast 232 267 6,900 -450 Level FAA TRACON SMA TRACON (SMA)
Thu 08:26:41 AM 40.1144 -75.4492 156° South 224 258 6,600 -900 Descending FAA TRACON SMA TRACON (SMA)
Thu 08:27:01 AM 40.0994 -75.4381 150° Southeast 224 258 6,300 -900 Descending FAA TRACON SMA TRACON (SMA)
Thu 08:27:21 AM 40.0758 -75.4256 158° South 220 253 6,000 -450 Descending FAA TRACON SMA TRACON (SMA)
Thu 08:27:41 AM 40.0581 -75.4169 160° South 223 257 6,000  Level FAA TRACON SMA TRACON (SMA)
Thu 08:28:01 AM 40.0403 -75.4117 167° South 216 249 6,000  Level FAA TRACON SMA TRACON (SMA)
Thu 08:28:21 AM 40.0181 -75.4047 167° South 213 245 6,000 -146 Level FAA TRACON SMA TRACON (SMA)
Thu 08:28:42 AM 40.0000 -75.4006 170° South 213 245 5,900  Descending FAA TRACON SMA TRACON (SMA)
Thu 08:29:01 AM 39.9825 -75.3939 164° South 214 246 6,000  Climbing FAA TRACON SMA TRACON (SMA)
Thu 08:29:21 AM 39.9600 -75.3872 167° South 215 247 5,900  Descending FAA TRACON SMA TRACON (SMA)
Thu 08:29:42 AM 39.9428 -75.3914 191° South 197 227 6,000  Climbing FAA TRACON SMA TRACON (SMA)
Thu 08:30:01 AM 39.9283 -75.4117 227° Southwest 196 226 5,900 -154 Descending FAA TRACON SMA TRACON (SMA)
Thu 08:30:21 AM 39.9239 -75.4300 252° West 181 208 5,900 146 Level FAA TRACON SMA TRACON (SMA)
Thu 08:30:42 AM 39.9194 -75.4497 254° West 180 207 6,000 150 Climbing FAA TRACON SMA TRACON (SMA)
Thu 08:31:01 AM 39.9142 -75.4733 254° West 179 206 6,000  Level FAA TRACON SMA TRACON (SMA)
Thu 08:31:21 AM 39.9094 -75.4925 252° West 179 206 6,000  Level FAA TRACON SMA TRACON (SMA)
Thu 08:31:42 AM 39.9050 -75.5117 253° West 180 207 6,000  Level FAA TRACON SMA TRACON (SMA)
Thu 08:32:01 AM 39.9000 -75.5356 255° West 178 205 6,000  Level FAA TRACON SMA TRACON (SMA)
Thu 08:32:21 AM 39.8961 -75.5553 256° West 180 207 6,000  Level FAA TRACON SMA TRACON (SMA)
Thu 08:32:42 AM 39.8922 -75.5747 255° West 181 208 6,000  Level FAA TRACON SMA TRACON (SMA)
Thu 08:33:01 AM 39.8872 -75.5992 255° West 182 209 6,000  Level FAA TRACON SMA TRACON (SMA)
Thu 08:33:21 AM 39.8833 -75.6186 255° West 181 208 6,000  Level FAA TRACON SMA TRACON (SMA)
Thu 08:33:42 AM 39.8792 -75.6378 254° West 182 209 6,000  Level FAA TRACON SMA TRACON (SMA)
Thu 08:34:01 AM 39.8739 -75.6628 255° West 182 209 6,000  Level FAA TRACON SMA TRACON (SMA)
Thu 08:34:21 AM 39.8697 -75.6819 254° West 181 208 6,000  Level FAA TRACON SMA TRACON (SMA)
Thu 08:34:42 AM 39.8658 -75.7014 255° West 182 209 6,000  Level FAA TRACON SMA TRACON (SMA)
Thu 08:35:02 AM 39.8614 -75.7236 255° West 182 209 6,000 -462 Level FAA TRACON SMA TRACON (SMA)
Thu 08:35:21 AM 39.8561 -75.7442 252° West 181 208 5,700 -923 Descending FAA TRACON SMA TRACON (SMA)
Thu 08:35:41 AM 39.8522 -75.7647 256° West 182 209 5,400 -900 Descending FAA TRACON SMA TRACON (SMA)
Thu 08:36:01 AM 39.8369 -75.7767 211° Southwest 176 203 5,100 -585 Descending FAA TRACON SMA TRACON (SMA)
Thu 08:36:22 AM 39.8217 -75.7783 185° South 166 191 5,000 -439 Descending FAA TRACON SMA TRACON (SMA)
Thu 08:36:42 AM 39.8075 -75.7794 183° South 165 190 4,800 -923 Descending FAA TRACON SMA TRACON (SMA)
Thu 08:37:01 AM 39.7919 -75.7669 148° Southeast 172 198 4,400 -1,077 Descending FAA TRACON SMA TRACON (SMA)
Thu 08:37:21 AM 39.7878 -75.7450 104° East 195 224 4,100 -600 Descending FAA TRACON SMA TRACON (SMA)
Thu 08:37:41 AM 39.7853 -75.7239 99° East 194 223 4,000 -150 Descending FAA TRACON SMA TRACON (SMA)
Thu 08:38:01 AM 39.7814 -75.6983 101° East 188 216 4,000 -146 Level FAA TRACON SMA TRACON (SMA)
Thu 08:38:22 AM 39.7797 -75.6778 96° East 187 215 3,900  Descending FAA TRACON SMA TRACON (SMA)
Thu 08:38:42 AM 39.7828 -75.6569 79° East 194 223 4,000  Climbing FAA TRACON SMA TRACON (SMA)
Thu 08:39:01 AM 39.7886 -75.6317 73° East 189 217 3,900 -450 Descending FAA TRACON SMA TRACON (SMA)
Thu 08:39:22 AM 39.7931 -75.6117 74° East 186 214 3,700 -585 Descending FAA TRACON SMA TRACON (SMA)
Thu 08:39:42 AM 39.7972 -75.5917 75° East 187 215 3,500 -600 Descending FAA TRACON SMA TRACON (SMA)
Thu 08:40:02 AM 39.8022 -75.5667 75° East 186 214 3,300 -615 Descending FAA TRACON SMA TRACON (SMA)
Thu 08:40:21 AM 39.8058 -75.5472 76° East 182 209 3,100 -450 Descending FAA TRACON SMA TRACON (SMA)
Thu 08:40:42 AM 39.8100 -75.5281 74° East 179 206 3,000 -450 Descending FAA TRACON SMA TRACON (SMA)
Thu 08:41:01 AM 39.8142 -75.5064 76° East 170 196 2,800 -462 Descending FAA TRACON SMA TRACON (SMA)
Thu 08:41:21 AM 39.8178 -75.4883 75° East 167 192 2,700 -300 Descending FAA TRACON SMA TRACON (SMA)
Thu 08:41:41 AM 39.8214 -75.4706 75° East 166 191 2,600 -293 Descending FAA TRACON SMA TRACON (SMA)
Thu 08:42:02 AM 39.8258 -75.4489 75° East 167 192 2,500 -300 Descending FAA TRACON SMA TRACON (SMA)
Thu 08:42:21 AM 39.8294 -75.4297 76° East 169 194 2,400 -450 Descending FAA TRACON SMA TRACON (SMA)
Thu 08:42:42 AM 39.8333 -75.4111 75° East 170 196 2,200 -571 Descending FAA TRACON SMA TRACON (SMA)

Login

Don't have an account? Register now (free) for customized features, flight alerts, and more!